createdAt,value
2019-02-24T00:00:33.654Z,63.18
2019-02-24T00:03:02.132Z,63.54
2019-02-24T00:05:30.529Z,63.56
2019-02-24T00:07:58.915Z,64.70
2019-02-24T00:10:27.339Z,64.20
2019-02-24T00:12:55.738Z,63.57
2019-02-24T00:15:24.181Z,63.52
2019-02-24T00:17:52.577Z,64.72
2019-02-24T00:20:20.973Z,63.70
2019-02-24T00:22:49.416Z,64.65
2019-02-24T00:25:17.820Z,64.79
2019-02-24T00:27:46.206Z,64.08
2019-02-24T00:30:14.609Z,64.21
2019-02-24T00:32:43.003Z,64.58
2019-02-24T00:35:11.440Z,65.61
2019-02-24T00:37:39.833Z,65.27
2019-02-24T00:40:08.570Z,66.08
2019-02-24T00:42:37.008Z,65.54
2019-02-24T00:45:06.956Z,64.49
2019-02-24T00:47:35.384Z,63.86
2019-02-24T00:50:04.262Z,64.13
2019-02-24T00:52:32.971Z,64.16
2019-02-24T00:55:01.375Z,64.88
2019-02-24T00:57:29.779Z,65.48
2019-02-24T00:59:58.216Z,66.53
2019-02-24T01:02:26.621Z,66.90
2019-02-24T01:04:55.020Z,65.85
2019-02-24T01:07:23.435Z,64.99
2019-02-24T01:09:51.830Z,65.42
2019-02-24T01:12:20.602Z,65.11
2019-02-24T01:14:49.017Z,64.78
2019-02-24T01:17:17.420Z,65.01
2019-02-24T01:19:45.829Z,65.51
2019-02-24T01:22:14.233Z,66.20
2019-02-24T01:24:42.684Z,65.62
2019-02-24T01:27:11.084Z,65.84
2019-02-24T01:29:39.489Z,66.45
2019-02-24T01:32:07.901Z,66.77
2019-02-24T01:34:36.297Z,68.09
2019-02-24T01:37:06.259Z,68.56
2019-02-24T01:39:34.656Z,68.25
2019-02-24T01:42:03.075Z,68.24
2019-02-24T01:44:31.488Z,67.30
2019-02-24T01:47:00.237Z,66.85
2019-02-24T01:49:28.964Z,66.91
2019-02-24T01:51:57.383Z,67.46
2019-02-24T01:54:25.806Z,67.71
2019-02-24T01:56:54.229Z,67.79
2019-02-24T01:59:22.642Z,68.79
2019-02-24T02:01:51.065Z,68.33
2019-02-24T02:04:19.479Z,68.08
2019-02-24T02:06:47.879Z,68.62
2019-02-24T02:09:16.353Z,68.01
2019-02-24T02:11:44.749Z,66.80
2019-02-24T02:14:13.191Z,66.49
2019-02-24T02:16:42.491Z,67.00
2019-02-24T02:19:10.910Z,68.41
2019-02-24T02:21:39.326Z,68.74
2019-02-24T02:24:07.765Z,68.97
2019-02-24T02:26:36.221Z,67.91
2019-02-24T02:29:04.630Z,66.97
2019-02-24T02:31:33.040Z,66.76
2019-02-24T02:34:01.456Z,66.60
2019-02-24T02:36:29.869Z,67.07
2019-02-24T02:38:58.302Z,67.81
2019-02-24T02:41:26.710Z,68.41
2019-02-24T02:43:55.123Z,69.91
2019-02-24T02:46:23.548Z,69.46
2019-02-24T02:48:51.958Z,69.16
2019-02-24T02:51:20.394Z,68.06
2019-02-24T02:53:48.798Z,68.20
2019-02-24T02:56:17.213Z,68.56
2019-02-24T02:58:53.921Z,68.13
2019-02-24T03:01:15.742Z,68.33
2019-02-24T03:03:44.257Z,68.50
2019-02-24T03:06:16.737Z,68.84
2019-02-24T03:08:46.609Z,68.94
2019-02-24T03:11:16.055Z,69.53
2019-02-24T03:13:44.738Z,68.84
2019-02-24T03:16:13.604Z,70.03
2019-02-24T03:18:42.015Z,69.63
2019-02-24T03:21:10.423Z,68.59
2019-02-24T03:23:39.169Z,68.38
2019-02-24T03:26:07.569Z,68.45
2019-02-24T03:28:36.002Z,68.88
2019-02-24T03:31:04.738Z,68.91
2019-02-24T03:33:33.133Z,69.00
2019-02-24T03:36:01.553Z,68.56
2019-02-24T03:38:30.255Z,69.21
2019-02-24T03:40:59.018Z,69.02
2019-02-24T03:43:27.501Z,70.28
2019-02-24T03:45:55.914Z,69.87
2019-02-24T03:48:24.326Z,69.17
2019-02-24T03:50:52.738Z,68.64
2019-02-24T03:53:21.223Z,67.69
2019-02-24T03:55:49.625Z,68.22
2019-02-24T03:58:18.029Z,68.58
2019-02-24T04:00:46.512Z,68.90
2019-02-24T04:03:14.899Z,69.23
2019-02-24T04:05:43.328Z,69.96
2019-02-24T04:08:11.737Z,70.37
2019-02-24T04:10:40.141Z,70.11
2019-02-24T04:13:08.543Z,69.22
2019-02-24T04:15:37.015Z,67.87
2019-02-24T04:18:05.430Z,67.91
2019-02-24T04:20:33.831Z,67.88
2019-02-24T04:23:02.249Z,68.93
2019-02-24T04:25:30.658Z,70.27
2019-02-24T04:27:59.067Z,70.78
2019-02-24T04:30:27.493Z,70.87
2019-02-24T04:32:55.904Z,71.26
2019-02-24T04:35:24.305Z,71.17
2019-02-24T04:37:52.714Z,70.58
2019-02-24T04:40:21.111Z,69.71
2019-02-24T04:42:49.570Z,68.87
2019-02-24T04:45:17.981Z,69.13
2019-02-24T04:47:46.382Z,69.85
2019-02-24T04:50:15.060Z,69.54
2019-02-24T04:52:43.484Z,68.78
2019-02-24T04:55:12.224Z,68.81
2019-02-24T04:57:40.637Z,69.04
2019-02-24T05:00:10.194Z,69.86
2019-02-24T05:02:38.663Z,70.07
2019-02-24T05:05:07.130Z,70.05
2019-02-24T05:07:36.106Z,69.67
2019-02-24T05:10:06.394Z,69.75
2019-02-24T05:12:34.805Z,69.91
2019-02-24T05:15:03.765Z,70.98
2019-02-24T05:17:32.168Z,72.67
2019-02-24T05:20:00.943Z,72.67
2019-02-24T05:22:29.358Z,72.68
2019-02-24T05:24:57.772Z,73.89
2019-02-24T05:27:26.182Z,73.00
2019-02-24T05:29:54.596Z,72.56
2019-02-24T05:32:22.996Z,72.14
2019-02-24T05:34:51.398Z,72.47
2019-02-24T05:37:19.839Z,73.32
2019-02-24T05:39:48.238Z,71.43
2019-02-24T05:42:16.642Z,71.03
2019-02-24T05:44:45.060Z,70.03
2019-02-24T05:47:13.475Z,70.63
2019-02-24T05:49:41.877Z,70.46
2019-02-24T05:52:10.292Z,70.84
2019-02-24T05:54:38.694Z,71.21
2019-02-24T05:57:10.221Z,72.31
2019-02-24T05:59:38.627Z,72.50
2019-02-24T06:02:07.048Z,73.30
2019-02-24T06:04:35.465Z,74.02
2019-02-24T06:07:03.874Z,73.89
2019-02-24T06:09:32.279Z,73.29
2019-02-24T06:12:00.702Z,72.36
2019-02-24T06:14:29.106Z,72.10
2019-02-24T06:16:57.518Z,71.35
2019-02-24T06:19:25.972Z,71.63
2019-02-24T06:21:54.363Z,72.37
2019-02-24T06:24:22.772Z,72.93
2019-02-24T06:26:51.188Z,72.97
2019-02-24T06:29:19.582Z,72.02
2019-02-24T06:31:48.038Z,72.86
2019-02-24T06:34:16.495Z,72.72
2019-02-24T06:36:44.915Z,71.91
2019-02-24T06:39:13.337Z,71.58
2019-02-24T06:41:41.746Z,71.69
2019-02-24T06:44:10.160Z,70.81
2019-02-24T06:46:38.875Z,70.62
2019-02-24T06:49:07.274Z,70.52
2019-02-24T06:51:36.243Z,70.99
2019-02-24T06:54:04.649Z,70.86
2019-02-24T06:56:33.041Z,71.30
2019-02-24T06:59:02.010Z,71.64
2019-02-24T07:01:30.406Z,71.53
2019-02-24T07:03:58.811Z,72.86
2019-02-24T07:06:27.535Z,72.12
2019-02-24T07:08:55.945Z,71.21
2019-02-24T07:11:24.350Z,70.41
2019-02-24T07:13:52.783Z,70.32
2019-02-24T07:16:21.186Z,69.85
2019-02-24T07:18:49.590Z,68.90
2019-02-24T07:21:18.864Z,66.62
2019-02-24T07:23:49.932Z,65.81
2019-02-24T07:26:18.328Z,65.25
2019-02-24T07:28:46.804Z,64.42
2019-02-24T07:31:15.203Z,64.04
2019-02-24T07:33:43.616Z,63.19
2019-02-24T07:36:12.037Z,62.69
2019-02-24T07:38:40.443Z,62.70
2019-02-24T07:41:08.845Z,61.46
2019-02-24T07:43:37.285Z,58.90
2019-02-24T07:46:05.683Z,59.82
2019-02-24T07:48:34.078Z,58.34
2019-02-24T07:51:02.511Z,55.86
2019-02-24T07:53:31.221Z,57.03
2019-02-24T07:55:59.620Z,56.91
2019-02-24T07:58:28.391Z,54.63
2019-02-24T08:00:56.806Z,55.87
2019-02-24T08:03:25.200Z,57.84
2019-02-24T08:05:53.638Z,55.86
2019-02-24T08:08:22.032Z,55.65
2019-02-24T08:10:50.438Z,54.20
2019-02-24T08:13:18.857Z,53.98
2019-02-24T08:15:47.257Z,51.94
2019-02-24T08:18:16.574Z,51.44
2019-02-24T08:20:44.977Z,52.69
2019-02-24T08:23:13.387Z,51.80
2019-02-24T08:25:42.324Z,50.86
2019-02-24T08:28:10.740Z,48.34
2019-02-24T08:30:41.892Z,47.83
2019-02-24T08:33:09.411Z,49.64
2019-02-24T08:35:37.820Z,48.38
2019-02-24T08:38:06.209Z,48.60
2019-02-24T08:40:34.916Z,47.49
2019-02-24T08:43:03.321Z,46.95
2019-02-24T08:45:32.327Z,44.13
2019-02-24T08:48:00.737Z,41.88
2019-02-24T08:50:29.134Z,43.49
2019-02-24T08:52:57.607Z,43.83
2019-02-24T08:55:26.010Z,43.47
2019-02-24T08:57:54.420Z,43.01
2019-02-24T09:00:22.824Z,41.37
2019-02-24T09:02:52.622Z,42.05
2019-02-24T09:05:21.204Z,38.14
2019-02-24T09:07:49.615Z,34.53
2019-02-24T09:10:18.022Z,30.79
2019-02-24T09:12:46.455Z,29.98
2019-02-24T09:15:15.437Z,30.92
2019-02-24T09:17:43.837Z,28.43
2019-02-24T09:20:12.994Z,29.15
2019-02-24T09:22:41.414Z,31.76
2019-02-24T09:25:10.567Z,28.59
2019-02-24T09:27:38.980Z,30.09
2019-02-24T09:30:12.953Z,30.47
2019-02-24T09:32:41.441Z,29.23
2019-02-24T09:35:11.290Z,26.04
2019-02-24T09:37:39.731Z,27.61
2019-02-24T09:40:13.345Z,26.82
2019-02-24T09:42:41.756Z,26.38
2019-02-24T09:45:12.090Z,28.58
2019-02-24T09:47:46.680Z,27.02
2019-02-24T09:50:11.182Z,25.77
2019-02-24T09:52:39.583Z,26.32
2019-02-24T09:55:10.075Z,26.32
2019-02-24T09:57:38.476Z,26.12
2019-02-24T10:00:14.878Z,28.96
2019-02-24T10:02:43.285Z,26.92
2019-02-24T10:05:11.692Z,26.84
2019-02-24T10:07:40.124Z,27.32
2019-02-24T10:10:11.045Z,26.73
2019-02-24T10:12:39.442Z,24.70
2019-02-24T10:15:13.002Z,25.97
2019-02-24T10:17:41.399Z,24.27
2019-02-24T10:20:11.233Z,25.09
2019-02-24T10:22:39.640Z,25.11
2019-02-24T10:25:09.187Z,22.38
2019-02-24T10:27:37.716Z,25.09
2019-02-24T10:30:11.362Z,25.18
2019-02-24T10:32:39.774Z,24.94
2019-02-24T10:35:08.433Z,24.48
2019-02-24T10:37:36.831Z,23.81
2019-02-24T10:40:12.529Z,25.94
2019-02-24T10:42:41.051Z,23.40
2019-02-24T10:45:12.539Z,23.09
2019-02-24T10:47:41.727Z,25.30
2019-02-24T10:50:15.315Z,23.35
2019-02-24T10:52:43.723Z,22.78
2019-02-24T10:55:12.463Z,22.82
2019-02-24T10:57:40.863Z,24.62
2019-02-24T11:00:17.522Z,21.24
2019-02-24T11:02:46.638Z,23.92
2019-02-24T11:05:16.286Z,22.08
2019-02-24T11:07:44.822Z,23.26
2019-02-24T11:10:13.410Z,22.22
2019-02-24T11:12:41.885Z,22.09
2019-02-24T11:15:11.830Z,21.67
2019-02-24T11:17:40.457Z,20.84
2019-02-24T11:20:17.263Z,21.90
2019-02-24T11:22:45.773Z,20.54
2019-02-24T11:25:14.607Z,21.03
2019-02-24T11:27:44.483Z,20.90
2019-02-24T11:30:14.735Z,20.81
2019-02-24T11:32:43.141Z,22.08
2019-02-24T11:35:12.717Z,22.16
2019-02-24T11:37:41.135Z,22.41
2019-02-24T11:40:11.668Z,20.57
2019-02-24T11:42:40.870Z,20.22
2019-02-24T11:45:09.918Z,22.07
2019-02-24T11:47:38.322Z,23.92
2019-02-24T11:50:09.381Z,20.08
2019-02-24T11:52:37.797Z,20.91
2019-02-24T11:55:08.037Z,21.18
2019-02-24T11:57:36.613Z,19.50
2019-02-24T12:00:13.240Z,19.96
2019-02-24T12:02:42.016Z,21.43
2019-02-24T12:05:10.713Z,21.56
2019-02-24T12:07:39.111Z,19.12
2019-02-24T12:10:10.053Z,19.54
2019-02-24T12:12:38.504Z,18.39
2019-02-24T12:15:15.009Z,18.19
2019-02-24T12:17:43.410Z,19.59
2019-02-24T12:20:13.273Z,18.18
2019-02-24T12:22:41.686Z,19.76
2019-02-24T12:25:11.041Z,19.14
2019-02-24T12:27:39.585Z,17.92
2019-02-24T12:30:13.716Z,19.34
2019-02-24T12:32:42.118Z,18.76
2019-02-24T12:35:11.413Z,18.65
2019-02-24T12:37:39.818Z,18.85
2019-02-24T12:40:09.868Z,18.07
2019-02-24T12:42:38.353Z,18.49
2019-02-24T12:45:10.706Z,18.12
2019-02-24T12:47:39.145Z,18.21
2019-02-24T12:50:12.070Z,17.73
2019-02-24T12:52:40.476Z,18.53
2019-02-24T12:55:11.295Z,17.75
2019-02-24T12:57:40.442Z,19.10
2019-02-24T13:00:13.807Z,18.62
2019-02-24T13:02:42.294Z,17.82
2019-02-24T13:05:10.697Z,19.42
2019-02-24T13:07:39.105Z,17.85
2019-02-24T13:10:16.372Z,17.98
2019-02-24T13:12:44.767Z,18.33
2019-02-24T13:15:13.406Z,20.66
2019-02-24T13:17:42.209Z,17.46
2019-02-24T13:20:11.449Z,17.14
2019-02-24T13:22:40.102Z,18.87
2019-02-24T13:25:14.108Z,16.69
2019-02-24T13:27:42.577Z,17.32
2019-02-24T13:30:16.330Z,17.99
2019-02-24T13:32:45.071Z,19.08
2019-02-24T13:35:13.542Z,19.08
2019-02-24T13:37:42.309Z,18.40
2019-02-24T13:40:15.156Z,18.64
2019-02-24T13:42:43.557Z,16.19
2019-02-24T13:45:19.321Z,17.42
2019-02-24T13:47:47.761Z,17.96
2019-02-24T13:50:16.397Z,16.43
2019-02-24T13:52:44.798Z,17.05
2019-02-24T13:55:14.821Z,16.63
2019-02-24T13:57:43.227Z,17.07
2019-02-24T14:00:17.316Z,19.17
2019-02-24T14:02:45.758Z,18.66
2019-02-24T14:05:14.235Z,18.09
2019-02-24T14:07:42.641Z,19.12
2019-02-24T14:10:14.676Z,17.82
2019-02-24T14:12:43.149Z,17.80
2019-02-24T14:15:13.706Z,17.26
2019-02-24T14:17:42.491Z,19.28
2019-02-24T14:20:12.739Z,19.61
2019-02-24T14:22:41.228Z,18.19
2019-02-24T14:25:11.630Z,16.95
2019-02-24T14:27:40.379Z,17.30
2019-02-24T14:30:13.984Z,18.38
2019-02-24T14:32:44.003Z,17.84
2019-02-24T14:35:15.334Z,18.20
2019-02-24T14:37:43.762Z,17.82
2019-02-24T14:40:12.230Z,18.01
2019-02-24T14:42:40.638Z,17.43
2019-02-24T14:45:14.638Z,18.54
2019-02-24T14:47:43.048Z,17.46
2019-02-24T14:50:11.991Z,16.97
2019-02-24T14:52:40.799Z,17.70
2019-02-24T14:55:13.445Z,17.63
2019-02-24T14:57:41.846Z,18.33
2019-02-24T15:00:20.990Z,19.51
2019-02-24T15:02:49.872Z,18.13
2019-02-24T15:05:18.274Z,17.88
2019-02-24T15:07:47.030Z,17.24
2019-02-24T15:10:20.529Z,17.76
2019-02-24T15:12:48.927Z,19.03
2019-02-24T15:15:26.413Z,18.23
2019-02-24T15:17:53.355Z,18.35
2019-02-24T15:20:22.338Z,19.34
2019-02-24T15:22:51.284Z,17.02
2019-02-24T15:25:19.688Z,17.78
2019-02-24T15:27:48.094Z,17.05
2019-02-24T15:30:28.578Z,19.06
2019-02-24T15:32:56.999Z,17.31
2019-02-24T15:35:25.406Z,16.90
2019-02-24T15:37:53.896Z,20.38
2019-02-24T15:40:22.299Z,16.95
2019-02-24T15:42:51.059Z,18.20
2019-02-24T15:45:19.664Z,17.65
2019-02-24T15:47:48.070Z,18.21
2019-02-24T15:50:16.702Z,17.21
2019-02-24T15:52:45.100Z,15.76
2019-02-24T15:55:14.943Z,16.36
2019-02-24T15:57:44.095Z,18.44
2019-02-24T16:00:18.375Z,17.80
2019-02-24T16:02:46.788Z,16.71
2019-02-24T16:05:15.193Z,18.37
2019-02-24T16:07:43.592Z,18.55
2019-02-24T16:10:18.017Z,19.13
2019-02-24T16:12:46.433Z,18.63
2019-02-24T16:15:17.039Z,18.53
2019-02-24T16:17:45.473Z,18.42
2019-02-24T16:20:16.517Z,21.16
2019-02-24T16:22:45.264Z,17.89
2019-02-24T16:25:14.502Z,19.36
2019-02-24T16:27:42.957Z,20.69
2019-02-24T16:30:13.661Z,21.08
2019-02-24T16:32:42.180Z,20.02
2019-02-24T16:35:13.629Z,21.28
2019-02-24T16:37:42.112Z,22.14
2019-02-24T16:40:19.252Z,21.44
2019-02-24T16:42:47.654Z,22.32
2019-02-24T16:45:16.708Z,24.96
2019-02-24T16:47:45.177Z,24.53
2019-02-24T16:50:21.648Z,24.90
2019-02-24T16:52:50.499Z,24.32
2019-02-24T16:55:19.087Z,24.60
2019-02-24T16:57:47.503Z,26.93
2019-02-24T17:00:21.659Z,30.16
2019-02-24T17:02:50.075Z,29.65
2019-02-24T17:05:18.560Z,30.41
2019-02-24T17:07:49.119Z,30.31
2019-02-24T17:10:25.364Z,29.52
2019-02-24T17:12:54.115Z,29.52
2019-02-24T17:15:22.513Z,31.80
2019-02-24T17:17:50.917Z,32.18
2019-02-24T17:20:27.772Z,32.92
2019-02-24T17:22:56.170Z,33.14
2019-02-24T17:25:24.579Z,32.48
2019-02-24T17:27:53.075Z,35.27
2019-02-24T17:30:23.593Z,35.46
2019-02-24T17:32:51.663Z,35.47
2019-02-24T17:35:20.539Z,35.48
2019-02-24T17:37:48.950Z,36.72
2019-02-24T17:40:23.767Z,36.74
2019-02-24T17:42:52.222Z,38.52
2019-02-24T17:45:20.634Z,39.34
2019-02-24T17:47:49.094Z,39.31
2019-02-24T17:50:18.520Z,38.68
2019-02-24T17:52:46.927Z,38.93
2019-02-24T17:55:19.333Z,39.07
2019-02-24T17:57:47.787Z,40.31
2019-02-24T18:00:43.048Z,41.27
2019-02-24T18:03:11.526Z,42.46
2019-02-24T18:05:39.926Z,42.66
2019-02-24T18:08:08.324Z,41.61
2019-02-24T18:10:37.185Z,40.33
2019-02-24T18:13:05.581Z,41.72
2019-02-24T18:15:33.985Z,41.08
2019-02-24T18:18:02.420Z,42.35
2019-02-24T18:20:30.889Z,44.73
2019-02-24T18:22:59.282Z,44.98
2019-02-24T18:25:27.713Z,43.33
2019-02-24T18:27:56.128Z,43.46
2019-02-24T18:30:31.069Z,43.52
2019-02-24T18:32:59.483Z,44.48
2019-02-24T18:35:28.010Z,45.78
2019-02-24T18:37:56.475Z,45.20
2019-02-24T18:40:24.907Z,47.61
2019-02-24T18:42:59.829Z,47.63
2019-02-24T18:45:23.444Z,47.13
2019-02-24T18:47:52.845Z,46.97
2019-02-24T18:50:21.255Z,47.82
2019-02-24T18:52:49.653Z,47.25
2019-02-24T18:55:18.103Z,45.90
2019-02-24T18:57:46.587Z,44.67
2019-02-24T19:00:24.791Z,46.33
2019-02-24T19:02:54.963Z,47.43
2019-02-24T19:05:23.315Z,48.34
2019-02-24T19:07:51.742Z,48.40
2019-02-24T19:10:21.885Z,48.37
2019-02-24T19:12:50.361Z,47.98
2019-02-24T19:15:20.122Z,48.26
2019-02-24T19:17:48.604Z,50.71
2019-02-24T19:20:19.212Z,50.57
2019-02-24T19:22:48.106Z,49.72
2019-02-24T19:25:16.749Z,49.62
2019-02-24T19:27:45.141Z,49.37
2019-02-24T19:30:21.442Z,48.91
2019-02-24T19:32:49.848Z,48.29
2019-02-24T19:35:19.179Z,52.17
2019-02-24T19:37:47.646Z,51.05
2019-02-24T19:40:20.211Z,50.12
2019-02-24T19:42:48.608Z,49.62
2019-02-24T19:45:26.330Z,49.22
2019-02-24T19:47:54.724Z,49.18
2019-02-24T19:50:23.140Z,48.53
2019-02-24T19:52:51.677Z,49.07
2019-02-24T19:55:20.148Z,50.37
2019-02-24T19:57:48.625Z,50.42
2019-02-24T20:00:20.607Z,51.05
2019-02-24T20:02:49.009Z,51.16
2019-02-24T20:05:17.747Z,51.95
2019-02-24T20:07:46.971Z,52.85
2019-02-24T20:10:18.385Z,52.95
2019-02-24T20:12:46.823Z,53.09
2019-02-24T20:15:16.179Z,53.66
2019-02-24T20:17:44.652Z,53.01
2019-02-24T20:20:15.229Z,52.64
2019-02-24T20:22:43.630Z,51.99
2019-02-24T20:25:16.462Z,51.87
2019-02-24T20:27:44.946Z,51.80
2019-02-24T20:30:19.088Z,52.89
2019-02-24T20:32:47.486Z,52.86
2019-02-24T20:35:16.026Z,52.75
2019-02-24T20:37:44.421Z,53.83
2019-02-24T20:40:12.883Z,54.03
2019-02-24T20:42:41.310Z,54.55
2019-02-24T20:45:12.451Z,54.90
2019-02-24T20:47:40.857Z,55.06
2019-02-24T20:50:15.255Z,56.00
2019-02-24T20:52:43.653Z,56.11
2019-02-24T20:55:12.133Z,56.17
2019-02-24T20:57:40.558Z,56.81
2019-02-24T21:00:26.735Z,56.21
2019-02-24T21:02:55.152Z,55.53
2019-02-24T21:05:23.557Z,54.30
2019-02-24T21:07:51.964Z,54.27
2019-02-24T21:10:20.478Z,54.48
2019-02-24T21:12:48.892Z,55.42
2019-02-24T21:15:18.435Z,55.45
2019-02-24T21:17:46.891Z,55.90
2019-02-24T21:20:20.856Z,56.79
2019-02-24T21:22:50.592Z,57.33
2019-02-24T21:25:19.235Z,57.14
2019-02-24T21:27:47.695Z,56.67
2019-02-24T21:30:19.947Z,56.80
2019-02-24T21:32:48.871Z,56.21
2019-02-24T21:35:17.582Z,56.42
2019-02-24T21:37:46.163Z,57.10
2019-02-24T21:40:19.412Z,57.53
2019-02-24T21:42:47.892Z,57.80
2019-02-24T21:45:23.743Z,57.48
2019-02-24T21:47:52.657Z,58.60
2019-02-24T21:50:21.125Z,58.87
2019-02-24T21:52:49.601Z,58.24
2019-02-24T21:55:18.247Z,56.79
2019-02-24T21:57:46.651Z,58.36
2019-02-24T22:00:25.835Z,58.38
2019-02-24T22:02:54.236Z,58.37
2019-02-24T22:05:22.649Z,57.97
2019-02-24T22:07:51.047Z,57.71
2019-02-24T22:10:19.450Z,58.08
2019-02-24T22:12:47.889Z,58.91
2019-02-24T22:15:23.919Z,60.35
2019-02-24T22:17:52.316Z,61.31
2019-02-24T22:20:20.908Z,61.37
2019-02-24T22:22:49.305Z,60.57
2019-02-24T22:25:18.051Z,60.28
2019-02-24T22:27:46.448Z,61.76
2019-02-24T22:30:17.439Z,61.06
2019-02-24T22:32:45.971Z,60.24
2019-02-24T22:35:14.496Z,60.47
2019-02-24T22:37:42.906Z,60.33
2019-02-24T22:40:16.822Z,60.56
2019-02-24T22:42:46.239Z,62.18
2019-02-24T22:45:17.362Z,61.86
2019-02-24T22:47:46.448Z,61.27
2019-02-24T22:50:15.592Z,60.91
2019-02-24T22:52:44.458Z,61.28
2019-02-24T22:55:17.697Z,61.59
2019-02-24T22:57:46.459Z,61.76
2019-02-24T23:00:52.533Z,63.13
2019-02-24T23:03:22.773Z,61.77
2019-02-24T23:05:51.560Z,62.78
2019-02-24T23:08:19.991Z,61.61
2019-02-24T23:10:48.693Z,60.12
2019-02-24T23:13:17.596Z,60.14
2019-02-24T23:15:45.995Z,60.86
2019-02-24T23:18:14.396Z,61.20
2019-02-24T23:20:42.811Z,62.85
2019-02-24T23:23:11.208Z,62.22
2019-02-24T23:25:39.615Z,61.36
2019-02-24T23:28:08.042Z,61.22
2019-02-24T23:30:36.666Z,60.97
2019-02-24T23:33:05.245Z,60.44
2019-02-24T23:35:34.013Z,61.04
2019-02-24T23:38:02.420Z,61.30
2019-02-24T23:40:30.866Z,61.81
2019-02-24T23:42:59.333Z,61.77
2019-02-24T23:45:27.743Z,61.79
2019-02-24T23:47:56.159Z,61.79
2019-02-24T23:50:24.556Z,61.54
2019-02-24T23:52:52.960Z,61.60
2019-02-24T23:55:21.378Z,61.63
2019-02-24T23:57:49.767Z,61.84
